Terminal Aerodrome Forecast
Issued by NWS

Home | Current Version | Previous Version | Text Only | Print | Product List | Glossary On
Versions: 1 2 3 4 5 6 7 8 9 10 11 12 13 14 15 16 17 18 19 20
000
FTPA31 PHFO 290500
TAFKOA
TAF
PHKO 290531Z 2906/3006 23011KT P6SM SCT035 BKN060
     FM290700 15008KT P6SM FEW025 SCT060
     FM291200 05005KT P6SM FEW025 SCT060
     FM292000 23011KT P6SM FEW025 BKN060=

USA.gov is the U.S. government's official web portal to all federal, state and local government web resources and services.